sensor_id;sensor_type;location;lat;lon;timestamp;P1;durP1;ratioP1;P2;durP2;ratioP2
40729;SDS011;26418;50.070;8.436;2023-04-15T00:00:08;2.90;;;1.13;;
40729;SDS011;26418;50.070;8.436;2023-04-15T00:02:34;5.43;;;1.30;;
40729;SDS011;26418;50.070;8.436;2023-04-15T00:05:01;4.05;;;1.65;;
40729;SDS011;26418;50.070;8.436;2023-04-15T00:07:26;5.82;;;1.65;;
40729;SDS011;26418;50.070;8.436;2023-04-15T00:09:51;3.03;;;1.25;;
40729;SDS011;26418;50.070;8.436;2023-04-15T00:12:19;4.40;;;1.40;;
40729;SDS011;26418;50.070;8.436;2023-04-15T00:14:45;4.47;;;1.58;;
40729;SDS011;26418;50.070;8.436;2023-04-15T00:17:11;3.70;;;1.52;;
40729;SDS011;26418;50.070;8.436;2023-04-15T00:19:36;3.38;;;1.42;;
40729;SDS011;26418;50.070;8.436;2023-04-15T00:22:02;4.65;;;1.50;;
40729;SDS011;26418;50.070;8.436;2023-04-15T00:24:27;2.30;;;1.10;;
40729;SDS011;26418;50.070;8.436;2023-04-15T00:26:53;3.05;;;1.55;;
40729;SDS011;26418;50.070;8.436;2023-04-15T00:29:18;2.92;;;1.27;;
40729;SDS011;26418;50.070;8.436;2023-04-15T00:31:44;2.50;;;1.50;;
40729;SDS011;26418;50.070;8.436;2023-04-15T00:34:09;2.90;;;1.50;;
40729;SDS011;26418;50.070;8.436;2023-04-15T00:36:34;4.93;;;2.00;;
40729;SDS011;26418;50.070;8.436;2023-04-15T00:39:00;2.50;;;1.27;;
40729;SDS011;26418;50.070;8.436;2023-04-15T00:41:27;2.47;;;1.42;;
40729;SDS011;26418;50.070;8.436;2023-04-15T00:43:52;4.47;;;1.48;;
40729;SDS011;26418;50.070;8.436;2023-04-15T00:46:18;2.17;;;1.33;;
40729;SDS011;26418;50.070;8.436;2023-04-15T00:48:45;2.40;;;1.63;;
40729;SDS011;26418;50.070;8.436;2023-04-15T00:51:11;7.70;;;2.10;;
40729;SDS011;26418;50.070;8.436;2023-04-15T00:53:37;3.47;;;1.63;;
40729;SDS011;26418;50.070;8.436;2023-04-15T00:56:03;2.50;;;1.08;;
40729;SDS011;26418;50.070;8.436;2023-04-15T00:58:29;2.25;;;1.33;;
40729;SDS011;26418;50.070;8.436;2023-04-15T01:00:55;4.45;;;1.70;;
40729;SDS011;26418;50.070;8.436;2023-04-15T01:03:21;3.80;;;1.50;;
40729;SDS011;26418;50.070;8.436;2023-04-15T01:05:46;3.33;;;1.40;;
40729;SDS011;26418;50.070;8.436;2023-04-15T01:08:12;4.10;;;1.48;;
40729;SDS011;26418;50.070;8.436;2023-04-15T01:10:38;4.57;;;1.58;;
40729;SDS011;26418;50.070;8.436;2023-04-15T01:13:03;3.78;;;1.52;;
40729;SDS011;26418;50.070;8.436;2023-04-15T01:15:29;3.03;;;1.35;;
40729;SDS011;26418;50.070;8.436;2023-04-15T01:17:56;1.73;;;1.20;;
40729;SDS011;26418;50.070;8.436;2023-04-15T01:20:22;3.28;;;1.25;;
40729;SDS011;26418;50.070;8.436;2023-04-15T01:22:48;4.60;;;1.35;;
40729;SDS011;26418;50.070;8.436;2023-04-15T01:25:17;4.20;;;1.92;;
40729;SDS011;26418;50.070;8.436;2023-04-15T01:27:44;4.28;;;1.23;;
40729;SDS011;26418;50.070;8.436;2023-04-15T01:30:10;3.35;;;1.58;;
40729;SDS011;26418;50.070;8.436;2023-04-15T01:32:36;5.50;;;1.55;;
40729;SDS011;26418;50.070;8.436;2023-04-15T01:35:01;5.97;;;1.67;;
40729;SDS011;26418;50.070;8.436;2023-04-15T01:37:27;3.10;;;1.33;;
40729;SDS011;26418;50.070;8.436;2023-04-15T01:39:53;1.77;;;1.30;;
40729;SDS011;26418;50.070;8.436;2023-04-15T01:42:19;3.22;;;1.40;;
40729;SDS011;26418;50.070;8.436;2023-04-15T01:44:45;5.68;;;1.98;;
40729;SDS011;26418;50.070;8.436;2023-04-15T01:47:11;2.25;;;1.50;;
40729;SDS011;26418;50.070;8.436;2023-04-15T01:49:36;3.17;;;1.17;;
40729;SDS011;26418;50.070;8.436;2023-04-15T01:52:01;5.28;;;1.38;;
40729;SDS011;26418;50.070;8.436;2023-04-15T01:54:27;3.75;;;1.52;;
40729;SDS011;26418;50.070;8.436;2023-04-15T01:56:52;7.28;;;1.75;;
40729;SDS011;26418;50.070;8.436;2023-04-15T01:59:17;7.65;;;1.90;;
40729;SDS011;26418;50.070;8.436;2023-04-15T02:01:43;4.03;;;1.73;;
40729;SDS011;26418;50.070;8.436;2023-04-15T02:04:09;3.20;;;1.60;;
40729;SDS011;26418;50.070;8.436;2023-04-15T02:06:41;2.05;;;1.38;;
40729;SDS011;26418;50.070;8.436;2023-04-15T02:09:10;3.42;;;1.50;;
40729;SDS011;26418;50.070;8.436;2023-04-15T02:11:35;4.15;;;1.40;;
40729;SDS011;26418;50.070;8.436;2023-04-15T02:14:03;3.38;;;1.42;;
40729;SDS011;26418;50.070;8.436;2023-04-15T02:16:30;3.97;;;1.67;;
40729;SDS011;26418;50.070;8.436;2023-04-15T02:18:56;2.30;;;1.50;;
40729;SDS011;26418;50.070;8.436;2023-04-15T02:21:21;2.10;;;1.30;;
40729;SDS011;26418;50.070;8.436;2023-04-15T02:23:47;3.97;;;1.73;;
40729;SDS011;26418;50.070;8.436;2023-04-15T02:26:13;4.63;;;1.63;;
40729;SDS011;26418;50.070;8.436;2023-04-15T02:28:38;4.22;;;1.38;;
40729;SDS011;26418;50.070;8.436;2023-04-15T02:31:04;10.23;;;1.95;;
40729;SDS011;26418;50.070;8.436;2023-04-15T02:33:30;5.18;;;2.00;;
40729;SDS011;26418;50.070;8.436;2023-04-15T02:35:56;3.78;;;1.75;;
40729;SDS011;26418;50.070;8.436;2023-04-15T02:38:21;4.38;;;2.00;;
40729;SDS011;26418;50.070;8.436;2023-04-15T02:40:47;3.25;;;1.73;;
40729;SDS011;26418;50.070;8.436;2023-04-15T02:43:14;4.25;;;1.52;;
40729;SDS011;26418;50.070;8.436;2023-04-15T02:45:41;3.60;;;1.58;;
40729;SDS011;26418;50.070;8.436;2023-04-15T02:48:07;1.70;;;1.35;;
40729;SDS011;26418;50.070;8.436;2023-04-15T02:50:33;3.40;;;1.58;;
40729;SDS011;26418;50.070;8.436;2023-04-15T02:52:58;3.45;;;1.45;;
40729;SDS011;26418;50.070;8.436;2023-04-15T02:55:25;6.05;;;1.90;;
40729;SDS011;26418;50.070;8.436;2023-04-15T02:57:50;3.70;;;1.60;;
40729;SDS011;26418;50.070;8.436;2023-04-15T03:00:16;4.40;;;1.98;;
40729;SDS011;26418;50.070;8.436;2023-04-15T03:02:41;3.95;;;1.48;;
40729;SDS011;26418;50.070;8.436;2023-04-15T03:05:10;2.65;;;1.40;;
40729;SDS011;26418;50.070;8.436;2023-04-15T03:07:38;2.55;;;1.48;;
40729;SDS011;26418;50.070;8.436;2023-04-15T03:10:07;4.25;;;1.52;;
40729;SDS011;26418;50.070;8.436;2023-04-15T03:12:33;3.17;;;1.80;;
40729;SDS011;26418;50.070;8.436;2023-04-15T03:14:58;2.33;;;1.60;;
40729;SDS011;26418;50.070;8.436;2023-04-15T03:17:24;2.65;;;1.50;;
40729;SDS011;26418;50.070;8.436;2023-04-15T03:19:49;3.35;;;1.80;;
40729;SDS011;26418;50.070;8.436;2023-04-15T03:22:15;4.38;;;2.22;;
40729;SDS011;26418;50.070;8.436;2023-04-15T03:24:40;2.83;;;1.90;;
40729;SDS011;26418;50.070;8.436;2023-04-15T03:27:05;3.55;;;1.70;;
40729;SDS011;26418;50.070;8.436;2023-04-15T03:29:32;2.95;;;1.48;;
40729;SDS011;26418;50.070;8.436;2023-04-15T03:31:57;3.42;;;1.63;;
40729;SDS011;26418;50.070;8.436;2023-04-15T03:34:23;3.60;;;1.95;;
40729;SDS011;26418;50.070;8.436;2023-04-15T03:36:48;3.00;;;1.70;;
40729;SDS011;26418;50.070;8.436;2023-04-15T03:39:13;5.03;;;1.63;;
40729;SDS011;26418;50.070;8.436;2023-04-15T03:41:39;2.10;;;1.48;;
40729;SDS011;26418;50.070;8.436;2023-04-15T03:44:04;3.75;;;1.98;;
40729;SDS011;26418;50.070;8.436;2023-04-15T03:46:30;6.82;;;2.22;;
40729;SDS011;26418;50.070;8.436;2023-04-15T03:48:55;5.57;;;2.40;;
40729;SDS011;26418;50.070;8.436;2023-04-15T03:51:21;6.18;;;2.83;;
40729;SDS011;26418;50.070;8.436;2023-04-15T03:53:46;5.88;;;2.47;;
40729;SDS011;26418;50.070;8.436;2023-04-15T03:56:11;3.22;;;1.75;;
40729;SDS011;26418;50.070;8.436;2023-04-15T03:58:37;3.88;;;2.10;;
40729;SDS011;26418;50.070;8.436;2023-04-15T04:01:02;3.83;;;2.10;;
40729;SDS011;26418;50.070;8.436;2023-04-15T04:03:27;4.15;;;1.90;;
40729;SDS011;26418;50.070;8.436;2023-04-15T04:05:53;6.03;;;2.25;;
40729;SDS011;26418;50.070;8.436;2023-04-15T04:08:18;4.32;;;1.63;;
40729;SDS011;26418;50.070;8.436;2023-04-15T04:10:45;2.42;;;1.30;;
40729;SDS011;26418;50.070;8.436;2023-04-15T04:13:10;6.65;;;1.60;;
40729;SDS011;26418;50.070;8.436;2023-04-15T04:15:36;2.95;;;1.48;;
40729;SDS011;26418;50.070;8.436;2023-04-15T04:18:01;4.38;;;1.52;;
40729;SDS011;26418;50.070;8.436;2023-04-15T04:20:29;2.20;;;1.50;;
40729;SDS011;26418;50.070;8.436;2023-04-15T04:22:56;3.45;;;2.13;;
40729;SDS011;26418;50.070;8.436;2023-04-15T04:25:21;4.80;;;2.38;;
40729;SDS011;26418;50.070;8.436;2023-04-15T04:27:47;4.28;;;2.35;;
40729;SDS011;26418;50.070;8.436;2023-04-15T04:30:12;6.18;;;2.97;;
40729;SDS011;26418;50.070;8.436;2023-04-15T04:32:37;8.02;;;3.28;;
40729;SDS011;26418;50.070;8.436;2023-04-15T04:35:03;7.55;;;2.75;;
40729;SDS011;26418;50.070;8.436;2023-04-15T04:37:28;6.57;;;2.90;;
40729;SDS011;26418;50.070;8.436;2023-04-15T04:39:54;5.63;;;3.20;;
40729;SDS011;26418;50.070;8.436;2023-04-15T04:42:20;6.63;;;3.40;;
40729;SDS011;26418;50.070;8.436;2023-04-15T04:44:45;6.30;;;4.10;;
40729;SDS011;26418;50.070;8.436;2023-04-15T04:47:11;7.97;;;3.03;;
40729;SDS011;26418;50.070;8.436;2023-04-15T04:49:36;5.47;;;2.50;;
40729;SDS011;26418;50.070;8.436;2023-04-15T04:52:01;5.70;;;2.65;;
40729;SDS011;26418;50.070;8.436;2023-04-15T04:54:27;5.07;;;2.42;;
40729;SDS011;26418;50.070;8.436;2023-04-15T04:56:52;5.80;;;2.58;;
40729;SDS011;26418;50.070;8.436;2023-04-15T04:59:17;8.05;;;3.08;;
40729;SDS011;26418;50.070;8.436;2023-04-15T05:01:43;6.53;;;3.03;;
40729;SDS011;26418;50.070;8.436;2023-04-15T05:04:08;4.68;;;2.67;;
40729;SDS011;26418;50.070;8.436;2023-04-15T05:06:33;4.70;;;2.30;;
40729;SDS011;26418;50.070;8.436;2023-04-15T05:09:00;2.90;;;2.00;;
40729;SDS011;26418;50.070;8.436;2023-04-15T05:11:27;5.03;;;2.30;;
40729;SDS011;26418;50.070;8.436;2023-04-15T05:13:52;4.03;;;2.25;;
40729;SDS011;26418;50.070;8.436;2023-04-15T05:16:17;7.50;;;2.60;;
40729;SDS011;26418;50.070;8.436;2023-04-15T05:18:43;5.15;;;2.20;;
40729;SDS011;26418;50.070;8.436;2023-04-15T05:21:09;3.15;;;1.95;;
40729;SDS011;26418;50.070;8.436;2023-04-15T05:23:34;4.93;;;2.45;;
40729;SDS011;26418;50.070;8.436;2023-04-15T05:26:00;3.00;;;2.10;;
40729;SDS011;26418;50.070;8.436;2023-04-15T05:28:25;3.97;;;2.45;;
40729;SDS011;26418;50.070;8.436;2023-04-15T05:30:51;3.85;;;2.50;;
40729;SDS011;26418;50.070;8.436;2023-04-15T05:33:16;5.78;;;1.98;;
40729;SDS011;26418;50.070;8.436;2023-04-15T05:35:42;3.45;;;1.80;;
40729;SDS011;26418;50.070;8.436;2023-04-15T05:38:07;2.78;;;1.58;;
40729;SDS011;26418;50.070;8.436;2023-04-15T05:40:32;2.65;;;1.67;;
40729;SDS011;26418;50.070;8.436;2023-04-15T05:42:57;1.95;;;1.48;;
40729;SDS011;26418;50.070;8.436;2023-04-15T05:45:23;4.82;;;1.60;;
40729;SDS011;26418;50.070;8.436;2023-04-15T05:47:48;3.05;;;1.75;;
40729;SDS011;26418;50.070;8.436;2023-04-15T05:50:15;2.25;;;1.35;;
40729;SDS011;26418;50.070;8.436;2023-04-15T05:52:40;3.28;;;1.98;;
40729;SDS011;26418;50.070;8.436;2023-04-15T05:55:06;2.55;;;1.90;;
40729;SDS011;26418;50.070;8.436;2023-04-15T05:57:31;4.13;;;1.98;;
40729;SDS011;26418;50.070;8.436;2023-04-15T05:59:57;4.72;;;2.35;;
40729;SDS011;26418;50.070;8.436;2023-04-15T06:02:22;3.58;;;2.50;;
40729;SDS011;26418;50.070;8.436;2023-04-15T06:04:47;2.92;;;2.13;;
40729;SDS011;26418;50.070;8.436;2023-04-15T06:07:13;4.00;;;2.00;;
40729;SDS011;26418;50.070;8.436;2023-04-15T06:09:38;3.08;;;1.60;;
40729;SDS011;26418;50.070;8.436;2023-04-15T06:12:03;2.83;;;1.90;;
40729;SDS011;26418;50.070;8.436;2023-04-15T06:14:30;3.10;;;1.67;;
40729;SDS011;26418;50.070;8.436;2023-04-15T06:16:56;4.75;;;1.92;;
40729;SDS011;26418;50.070;8.436;2023-04-15T06:19:21;2.63;;;1.50;;
40729;SDS011;26418;50.070;8.436;2023-04-15T06:21:46;3.13;;;1.67;;
40729;SDS011;26418;50.070;8.436;2023-04-15T06:24:12;2.47;;;1.75;;
40729;SDS011;26418;50.070;8.436;2023-04-15T06:26:37;4.40;;;1.95;;
40729;SDS011;26418;50.070;8.436;2023-04-15T06:29:02;4.50;;;1.98;;
40729;SDS011;26418;50.070;8.436;2023-04-15T06:31:28;4.72;;;2.42;;
40729;SDS011;26418;50.070;8.436;2023-04-15T06:33:54;3.83;;;1.88;;
40729;SDS011;26418;50.070;8.436;2023-04-15T06:36:19;2.38;;;1.88;;
40729;SDS011;26418;50.070;8.436;2023-04-15T06:38:45;3.28;;;2.00;;
40729;SDS011;26418;50.070;8.436;2023-04-15T06:41:10;4.03;;;2.20;;
40729;SDS011;26418;50.070;8.436;2023-04-15T06:43:35;2.55;;;1.92;;
40729;SDS011;26418;50.070;8.436;2023-04-15T06:46:01;2.53;;;1.90;;
40729;SDS011;26418;50.070;8.436;2023-04-15T06:48:26;1.85;;;1.63;;
40729;SDS011;26418;50.070;8.436;2023-04-15T06:50:52;1.88;;;1.38;;
40729;SDS011;26418;50.070;8.436;2023-04-15T06:53:17;3.00;;;2.28;;
40729;SDS011;26418;50.070;8.436;2023-04-15T06:55:42;3.90;;;2.00;;
40729;SDS011;26418;50.070;8.436;2023-04-15T06:58:08;3.47;;;2.30;;
40729;SDS011;26418;50.070;8.436;2023-04-15T07:00:33;3.38;;;2.08;;
40729;SDS011;26418;50.070;8.436;2023-04-15T07:02:59;4.80;;;2.25;;
40729;SDS011;26418;50.070;8.436;2023-04-15T07:05:27;4.45;;;2.58;;
40729;SDS011;26418;50.070;8.436;2023-04-15T07:07:53;6.30;;;3.20;;
40729;SDS011;26418;50.070;8.436;2023-04-15T07:10:18;5.82;;;2.70;;
40729;SDS011;26418;50.070;8.436;2023-04-15T07:12:44;5.75;;;3.00;;
40729;SDS011;26418;50.070;8.436;2023-04-15T07:15:09;6.30;;;4.13;;
40729;SDS011;26418;50.070;8.436;2023-04-15T07:17:35;9.98;;;4.07;;
40729;SDS011;26418;50.070;8.436;2023-04-15T07:20:01;6.05;;;3.97;;
40729;SDS011;26418;50.070;8.436;2023-04-15T07:22:26;7.15;;;4.85;;
40729;SDS011;26418;50.070;8.436;2023-04-15T07:24:52;6.70;;;4.30;;
40729;SDS011;26418;50.070;8.436;2023-04-15T07:27:17;7.07;;;5.18;;
40729;SDS011;26418;50.070;8.436;2023-04-15T07:29:42;10.85;;;4.65;;
40729;SDS011;26418;50.070;8.436;2023-04-15T07:32:07;6.55;;;3.67;;
40729;SDS011;26418;50.070;8.436;2023-04-15T07:34:34;7.13;;;4.22;;
40729;SDS011;26418;50.070;8.436;2023-04-15T07:36:59;7.03;;;3.85;;
40729;SDS011;26418;50.070;8.436;2023-04-15T07:39:25;7.72;;;3.92;;
40729;SDS011;26418;50.070;8.436;2023-04-15T07:41:51;4.82;;;3.40;;
40729;SDS011;26418;50.070;8.436;2023-04-15T07:44:16;5.60;;;3.55;;
40729;SDS011;26418;50.070;8.436;2023-04-15T07:46:41;5.70;;;3.85;;
40729;SDS011;26418;50.070;8.436;2023-04-15T07:49:07;10.82;;;3.70;;
40729;SDS011;26418;50.070;8.436;2023-04-15T07:51:32;5.38;;;3.40;;
40729;SDS011;26418;50.070;8.436;2023-04-15T07:53:57;6.40;;;3.80;;
40729;SDS011;26418;50.070;8.436;2023-04-15T07:56:23;5.13;;;3.72;;
40729;SDS011;26418;50.070;8.436;2023-04-15T07:58:48;6.70;;;4.55;;
40729;SDS011;26418;50.070;8.436;2023-04-15T08:01:13;6.90;;;3.50;;
40729;SDS011;26418;50.070;8.436;2023-04-15T08:03:39;7.20;;;4.47;;
40729;SDS011;26418;50.070;8.436;2023-04-15T08:06:05;7.00;;;4.65;;
40729;SDS011;26418;50.070;8.436;2023-04-15T08:08:30;8.45;;;3.72;;
40729;SDS011;26418;50.070;8.436;2023-04-15T08:10:56;7.18;;;3.45;;
40729;SDS011;26418;50.070;8.436;2023-04-15T08:13:22;7.40;;;4.75;;
40729;SDS011;26418;50.070;8.436;2023-04-15T08:18:38;7.22;;;3.80;;
40729;SDS011;26418;50.070;8.436;2023-04-15T08:21:03;6.47;;;3.67;;
40729;SDS011;26418;50.070;8.436;2023-04-15T08:23:29;9.77;;;5.00;;
40729;SDS011;26418;50.070;8.436;2023-04-15T08:25:56;7.40;;;3.88;;
40729;SDS011;26418;50.070;8.436;2023-04-15T08:28:21;9.40;;;4.88;;
40729;SDS011;26418;50.070;8.436;2023-04-15T08:30:46;9.95;;;3.53;;
40729;SDS011;26418;50.070;8.436;2023-04-15T08:33:12;7.22;;;4.30;;
40729;SDS011;26418;50.070;8.436;2023-04-15T08:35:37;6.85;;;2.95;;
40729;SDS011;26418;50.070;8.436;2023-04-15T08:38:03;8.10;;;4.88;;
40729;SDS011;26418;50.070;8.436;2023-04-15T08:40:29;7.97;;;5.53;;
40729;SDS011;26418;50.070;8.436;2023-04-15T08:43:04;6.70;;;4.45;;
40729;SDS011;26418;50.070;8.436;2023-04-15T08:45:33;6.63;;;4.22;;
40729;SDS011;26418;50.070;8.436;2023-04-15T08:47:59;8.00;;;4.00;;
40729;SDS011;26418;50.070;8.436;2023-04-15T08:50:28;22.55;;;8.45;;
40729;SDS011;26418;50.070;8.436;2023-04-15T08:52:55;11.07;;;4.25;;
40729;SDS011;26418;50.070;8.436;2023-04-15T08:55:25;9.15;;;4.60;;
40729;SDS011;26418;50.070;8.436;2023-04-15T08:57:57;10.00;;;4.93;;
40729;SDS011;26418;50.070;8.436;2023-04-15T09:00:22;5.50;;;3.50;;
40729;SDS011;26418;50.070;8.436;2023-04-15T09:02:49;8.27;;;3.38;;
40729;SDS011;26418;50.070;8.436;2023-04-15T09:05:14;6.95;;;2.85;;
40729;SDS011;26418;50.070;8.436;2023-04-15T09:07:41;8.35;;;4.55;;
40729;SDS011;26418;50.070;8.436;2023-04-15T09:10:06;8.35;;;3.80;;
40729;SDS011;26418;50.070;8.436;2023-04-15T09:12:33;4.35;;;2.65;;
40729;SDS011;26418;50.070;8.436;2023-04-15T09:15:00;4.88;;;2.47;;
40729;SDS011;26418;50.070;8.436;2023-04-15T09:17:26;3.85;;;2.80;;
40729;SDS011;26418;50.070;8.436;2023-04-15T09:20:07;6.30;;;2.63;;
40729;SDS011;26418;50.070;8.436;2023-04-15T09:22:45;6.25;;;3.00;;
40729;SDS011;26418;50.070;8.436;2023-04-15T09:27:51;11.23;;;3.38;;
40729;SDS011;26418;50.070;8.436;2023-04-15T09:30:17;5.20;;;2.97;;
40729;SDS011;26418;50.070;8.436;2023-04-15T09:32:52;5.10;;;2.38;;
40729;SDS011;26418;50.070;8.436;2023-04-15T09:35:20;3.15;;;1.60;;
40729;SDS011;26418;50.070;8.436;2023-04-15T09:37:46;3.70;;;1.23;;
40729;SDS011;26418;50.070;8.436;2023-04-15T09:40:12;3.88;;;1.48;;
40729;SDS011;26418;50.070;8.436;2023-04-15T09:42:56;2.70;;;1.40;;
40729;SDS011;26418;50.070;8.436;2023-04-15T09:45:22;3.95;;;1.10;;
40729;SDS011;26418;50.070;8.436;2023-04-15T09:47:48;1.75;;;0.73;;
40729;SDS011;26418;50.070;8.436;2023-04-15T09:50:15;1.98;;;0.75;;
40729;SDS011;26418;50.070;8.436;2023-04-15T09:52:41;1.25;;;0.85;;
40729;SDS011;26418;50.070;8.436;2023-04-15T09:55:08;1.75;;;0.80;;
40729;SDS011;26418;50.070;8.436;2023-04-15T09:57:34;1.85;;;0.70;;
40729;SDS011;26418;50.070;8.436;2023-04-15T10:00:04;3.53;;;1.10;;
40729;SDS011;26418;50.070;8.436;2023-04-15T10:02:32;2.58;;;0.98;;
40729;SDS011;26418;50.070;8.436;2023-04-15T10:05:01;4.32;;;1.10;;
40729;SDS011;26418;50.070;8.436;2023-04-15T10:07:27;1.35;;;0.70;;
40729;SDS011;26418;50.070;8.436;2023-04-15T10:09:52;1.90;;;0.82;;
40729;SDS011;26418;50.070;8.436;2023-04-15T10:12:19;1.63;;;0.95;;
40729;SDS011;26418;50.070;8.436;2023-04-15T10:14:52;1.98;;;0.93;;
40729;SDS011;26418;50.070;8.436;2023-04-15T10:17:22;0.77;;;0.60;;
40729;SDS011;26418;50.070;8.436;2023-04-15T10:19:53;4.82;;;0.90;;
40729;SDS011;26418;50.070;8.436;2023-04-15T10:22:19;1.30;;;0.75;;
40729;SDS011;26418;50.070;8.436;2023-04-15T10:24:45;1.73;;;0.90;;
40729;SDS011;26418;50.070;8.436;2023-04-15T10:27:12;1.30;;;0.80;;
40729;SDS011;26418;50.070;8.436;2023-04-15T10:29:38;3.30;;;0.90;;
40729;SDS011;26418;50.070;8.436;2023-04-15T10:32:04;1.27;;;0.60;;
40729;SDS011;26418;50.070;8.436;2023-04-15T10:34:29;1.80;;;0.60;;
40729;SDS011;26418;50.070;8.436;2023-04-15T10:36:57;2.08;;;0.80;;
40729;SDS011;26418;50.070;8.436;2023-04-15T10:44:49;2.42;;;0.98;;
40729;SDS011;26418;50.070;8.436;2023-04-15T10:47:20;4.82;;;0.70;;
40729;SDS011;26418;50.070;8.436;2023-04-15T10:49:47;1.63;;;0.80;;
40729;SDS011;26418;50.070;8.436;2023-04-15T10:52:15;5.32;;;1.00;;
40729;SDS011;26418;50.070;8.436;2023-04-15T10:54:47;5.68;;;0.90;;
40729;SDS011;26418;50.070;8.436;2023-04-15T10:57:14;1.15;;;0.68;;
40729;SDS011;26418;50.070;8.436;2023-04-15T11:02:37;2.47;;;1.02;;
40729;SDS011;26418;50.070;8.436;2023-04-15T11:05:03;1.83;;;0.70;;
40729;SDS011;26418;50.070;8.436;2023-04-15T11:07:34;1.67;;;0.60;;
40729;SDS011;26418;50.070;8.436;2023-04-15T11:10:00;2.03;;;1.08;;
40729;SDS011;26418;50.070;8.436;2023-04-15T11:12:33;1.60;;;0.68;;
40729;SDS011;26418;50.070;8.436;2023-04-15T11:15:23;3.17;;;0.80;;
40729;SDS011;26418;50.070;8.436;2023-04-15T11:18:01;1.10;;;0.80;;
40729;SDS011;26418;50.070;8.436;2023-04-15T11:20:34;2.20;;;0.70;;
40729;SDS011;26418;50.070;8.436;2023-04-15T11:23:00;2.70;;;1.17;;
40729;SDS011;26418;50.070;8.436;2023-04-15T11:25:26;2.63;;;1.23;;
40729;SDS011;26418;50.070;8.436;2023-04-15T11:27:53;3.28;;;1.45;;
40729;SDS011;26418;50.070;8.436;2023-04-15T11:30:20;2.75;;;1.10;;
40729;SDS011;26418;50.070;8.436;2023-04-15T11:32:53;2.08;;;1.08;;
40729;SDS011;26418;50.070;8.436;2023-04-15T11:35:22;3.28;;;1.15;;
40729;SDS011;26418;50.070;8.436;2023-04-15T11:37:48;2.60;;;1.25;;
40729;SDS011;26418;50.070;8.436;2023-04-15T11:40:14;2.88;;;1.00;;
40729;SDS011;26418;50.070;8.436;2023-04-15T11:45:35;2.88;;;1.00;;
40729;SDS011;26418;50.070;8.436;2023-04-15T11:48:09;2.25;;;1.15;;
40729;SDS011;26418;50.070;8.436;2023-04-15T11:50:36;2.33;;;1.20;;
40729;SDS011;26418;50.070;8.436;2023-04-15T11:53:04;2.42;;;1.42;;
40729;SDS011;26418;50.070;8.436;2023-04-15T11:55:31;3.72;;;1.33;;
40729;SDS011;26418;50.070;8.436;2023-04-15T11:58:17;3.25;;;1.45;;
40729;SDS011;26418;50.070;8.436;2023-04-15T12:00:48;2.17;;;1.17;;
40729;SDS011;26418;50.070;8.436;2023-04-15T12:03:24;4.43;;;1.08;;
40729;SDS011;26418;50.070;8.436;2023-04-15T12:13:52;5.55;;;1.40;;
40729;SDS011;26418;50.070;8.436;2023-04-15T12:16:20;3.33;;;1.13;;
40729;SDS011;26418;50.070;8.436;2023-04-15T12:18:49;1.75;;;0.82;;
40729;SDS011;26418;50.070;8.436;2023-04-15T12:21:18;1.67;;;0.80;;
40729;SDS011;26418;50.070;8.436;2023-04-15T12:26:29;0.85;;;0.60;;
40729;SDS011;26418;50.070;8.436;2023-04-15T12:29:01;0.60;;;0.40;;
40729;SDS011;26418;50.070;8.436;2023-04-15T12:31:27;1.30;;;0.65;;
40729;SDS011;26418;50.070;8.436;2023-04-15T12:33:56;1.25;;;0.63;;
40729;SDS011;26418;50.070;8.436;2023-04-15T12:36:22;1.13;;;0.60;;
40729;SDS011;26418;50.070;8.436;2023-04-15T12:38:48;0.50;;;0.40;;
40729;SDS011;26418;50.070;8.436;2023-04-15T12:41:14;1.05;;;0.57;;
40729;SDS011;26418;50.070;8.436;2023-04-15T12:43:40;0.50;;;0.38;;
40729;SDS011;26418;50.070;8.436;2023-04-15T12:46:06;1.17;;;0.45;;
40729;SDS011;26418;50.070;8.436;2023-04-15T12:48:32;1.92;;;0.60;;
40729;SDS011;26418;50.070;8.436;2023-04-15T12:50:58;0.80;;;0.60;;
40729;SDS011;26418;50.070;8.436;2023-04-15T12:53:23;1.80;;;0.80;;
40729;SDS011;26418;50.070;8.436;2023-04-15T12:55:50;1.73;;;0.70;;
40729;SDS011;26418;50.070;8.436;2023-04-15T12:58:15;0.75;;;0.70;;
40729;SDS011;26418;50.070;8.436;2023-04-15T13:00:41;1.33;;;0.60;;
40729;SDS011;26418;50.070;8.436;2023-04-15T13:03:06;1.35;;;0.88;;
40729;SDS011;26418;50.070;8.436;2023-04-15T13:05:32;1.48;;;0.82;;
40729;SDS011;26418;50.070;8.436;2023-04-15T13:07:57;1.35;;;0.70;;
40729;SDS011;26418;50.070;8.436;2023-04-15T13:10:23;0.68;;;0.60;;
40729;SDS011;26418;50.070;8.436;2023-04-15T13:12:48;1.23;;;0.60;;
40729;SDS011;26418;50.070;8.436;2023-04-15T13:15:16;1.42;;;0.80;;
40729;SDS011;26418;50.070;8.436;2023-04-15T13:17:44;1.63;;;0.90;;
40729;SDS011;26418;50.070;8.436;2023-04-15T13:20:10;3.92;;;1.40;;
40729;SDS011;26418;50.070;8.436;2023-04-15T13:22:35;2.20;;;1.30;;
40729;SDS011;26418;50.070;8.436;2023-04-15T13:25:00;2.13;;;1.00;;
40729;SDS011;26418;50.070;8.436;2023-04-15T13:27:26;1.08;;;0.90;;
40729;SDS011;26418;50.070;8.436;2023-04-15T13:29:51;1.40;;;0.88;;
40729;SDS011;26418;50.070;8.436;2023-04-15T13:32:16;1.48;;;0.82;;
40729;SDS011;26418;50.070;8.436;2023-04-15T13:34:42;3.92;;;0.88;;
40729;SDS011;26418;50.070;8.436;2023-04-15T13:37:07;1.10;;;0.70;;
40729;SDS011;26418;50.070;8.436;2023-04-15T13:39:33;1.63;;;1.17;;
40729;SDS011;26418;50.070;8.436;2023-04-15T13:41:58;2.35;;;1.02;;
40729;SDS011;26418;50.070;8.436;2023-04-15T13:44:24;1.38;;;0.70;;
40729;SDS011;26418;50.070;8.436;2023-04-15T13:46:50;2.00;;;1.20;;
40729;SDS011;26418;50.070;8.436;2023-04-15T13:49:16;2.00;;;1.20;;
40729;SDS011;26418;50.070;8.436;2023-04-15T13:51:41;1.33;;;0.80;;
40729;SDS011;26418;50.070;8.436;2023-04-15T13:54:06;2.83;;;1.20;;
40729;SDS011;26418;50.070;8.436;2023-04-15T13:56:31;1.05;;;0.70;;
40729;SDS011;26418;50.070;8.436;2023-04-15T13:58:57;0.93;;;0.68;;
40729;SDS011;26418;50.070;8.436;2023-04-15T14:01:25;1.27;;;0.90;;
40729;SDS011;26418;50.070;8.436;2023-04-15T14:03:51;1.50;;;0.75;;
40729;SDS011;26418;50.070;8.436;2023-04-15T14:06:16;2.53;;;0.93;;
40729;SDS011;26418;50.070;8.436;2023-04-15T14:08:42;1.13;;;0.82;;
40729;SDS011;26418;50.070;8.436;2023-04-15T14:11:07;1.35;;;0.73;;
40729;SDS011;26418;50.070;8.436;2023-04-15T14:13:32;2.00;;;0.80;;
40729;SDS011;26418;50.070;8.436;2023-04-15T14:15:59;3.00;;;0.90;;
40729;SDS011;26418;50.070;8.436;2023-04-15T14:18:25;2.40;;;1.10;;
40729;SDS011;26418;50.070;8.436;2023-04-15T14:20:50;1.77;;;1.33;;
40729;SDS011;26418;50.070;8.436;2023-04-15T14:23:16;1.60;;;1.23;;
40729;SDS011;26418;50.070;8.436;2023-04-15T14:25:41;1.23;;;1.00;;
40729;SDS011;26418;50.070;8.436;2023-04-15T14:28:07;0.77;;;0.75;;
40729;SDS011;26418;50.070;8.436;2023-04-15T14:30:32;1.30;;;0.98;;
40729;SDS011;26418;50.070;8.436;2023-04-15T14:32:58;1.60;;;1.23;;
40729;SDS011;26418;50.070;8.436;2023-04-15T14:35:23;1.83;;;1.20;;
40729;SDS011;26418;50.070;8.436;2023-04-15T14:37:50;2.08;;;1.42;;
40729;SDS011;26418;50.070;8.436;2023-04-15T14:40:16;2.17;;;1.30;;
40729;SDS011;26418;50.070;8.436;2023-04-15T14:42:42;1.40;;;1.20;;
40729;SDS011;26418;50.070;8.436;2023-04-15T14:45:07;1.45;;;1.05;;
40729;SDS011;26418;50.070;8.436;2023-04-15T14:47:33;1.83;;;1.58;;
40729;SDS011;26418;50.070;8.436;2023-04-15T14:49:58;1.75;;;1.08;;
40729;SDS011;26418;50.070;8.436;2023-04-15T14:52:24;1.20;;;1.10;;
40729;SDS011;26418;50.070;8.436;2023-04-15T14:54:49;1.60;;;1.10;;
40729;SDS011;26418;50.070;8.436;2023-04-15T14:57:15;1.65;;;1.17;;
40729;SDS011;26418;50.070;8.436;2023-04-15T14:59:40;2.53;;;1.17;;
40729;SDS011;26418;50.070;8.436;2023-04-15T15:02:06;1.38;;;1.02;;
40729;SDS011;26418;50.070;8.436;2023-04-15T15:04:32;1.83;;;1.13;;
40729;SDS011;26418;50.070;8.436;2023-04-15T15:06:58;1.77;;;1.40;;
40729;SDS011;26418;50.070;8.436;2023-04-15T15:09:24;1.27;;;0.93;;